sensor_id;sensor_type;location;lat;lon;timestamp;P1;durP1;ratioP1;P2;durP2;ratioP2
72569;SDS011;60594;50.204;8.844;2023-06-22T00:02:01;7.93;;;5.85;;
72569;SDS011;60594;50.204;8.844;2023-06-22T00:04:28;9.13;;;6.18;;
72569;SDS011;60594;50.204;8.844;2023-06-22T00:06:55;9.27;;;5.93;;
72569;SDS011;60594;50.204;8.844;2023-06-22T00:09:21;8.63;;;5.80;;
72569;SDS011;60594;50.204;8.844;2023-06-22T00:11:48;8.90;;;5.95;;
72569;SDS011;60594;50.204;8.844;2023-06-22T00:14:15;8.75;;;5.10;;
72569;SDS011;60594;50.204;8.844;2023-06-22T00:16:41;8.45;;;6.25;;
72569;SDS011;60594;50.204;8.844;2023-06-22T00:19:09;7.45;;;5.68;;
72569;SDS011;60594;50.204;8.844;2023-06-22T00:21:37;9.93;;;5.93;;
72569;SDS011;60594;50.204;8.844;2023-06-22T00:24:04;7.97;;;6.07;;
72569;SDS011;60594;50.204;8.844;2023-06-22T00:26:32;9.00;;;5.60;;
72569;SDS011;60594;50.204;8.844;2023-06-22T00:31:26;8.15;;;5.95;;
72569;SDS011;60594;50.204;8.844;2023-06-22T00:33:54;8.00;;;5.90;;
72569;SDS011;60594;50.204;8.844;2023-06-22T00:36:20;7.53;;;6.03;;
72569;SDS011;60594;50.204;8.844;2023-06-22T00:38:47;8.30;;;6.22;;
72569;SDS011;60594;50.204;8.844;2023-06-22T00:41:17;7.57;;;5.32;;
72569;SDS011;60594;50.204;8.844;2023-06-22T00:43:44;8.35;;;5.88;;
72569;SDS011;60594;50.204;8.844;2023-06-22T00:46:11;8.07;;;6.22;;
72569;SDS011;60594;50.204;8.844;2023-06-22T00:48:38;7.93;;;5.45;;
72569;SDS011;60594;50.204;8.844;2023-06-22T00:51:06;9.63;;;6.07;;
72569;SDS011;60594;50.204;8.844;2023-06-22T00:53:32;9.40;;;6.20;;
72569;SDS011;60594;50.204;8.844;2023-06-22T00:56:01;7.85;;;5.68;;
72569;SDS011;60594;50.204;8.844;2023-06-22T00:58:29;8.40;;;5.68;;
72569;SDS011;60594;50.204;8.844;2023-06-22T01:00:56;8.27;;;5.60;;
72569;SDS011;60594;50.204;8.844;2023-06-22T01:03:23;7.28;;;5.45;;
72569;SDS011;60594;50.204;8.844;2023-06-22T01:05:49;7.95;;;5.18;;
72569;SDS011;60594;50.204;8.844;2023-06-22T01:13:57;7.55;;;5.45;;
72569;SDS011;60594;50.204;8.844;2023-06-22T01:16:33;7.40;;;5.32;;
72569;SDS011;60594;50.204;8.844;2023-06-22T01:19:05;7.28;;;5.35;;
72569;SDS011;60594;50.204;8.844;2023-06-22T01:21:43;7.65;;;5.47;;
72569;SDS011;60594;50.204;8.844;2023-06-22T01:29:32;8.48;;;5.82;;
72569;SDS011;60594;50.204;8.844;2023-06-22T01:32:00;9.93;;;6.28;;
72569;SDS011;60594;50.204;8.844;2023-06-22T01:34:30;8.30;;;6.20;;
72569;SDS011;60594;50.204;8.844;2023-06-22T01:36:58;11.48;;;6.80;;
72569;SDS011;60594;50.204;8.844;2023-06-22T01:39:28;9.98;;;6.80;;
72569;SDS011;60594;50.204;8.844;2023-06-22T01:41:56;9.07;;;6.45;;
72569;SDS011;60594;50.204;8.844;2023-06-22T01:44:23;9.40;;;6.47;;
72569;SDS011;60594;50.204;8.844;2023-06-22T01:46:51;10.88;;;7.00;;
72569;SDS011;60594;50.204;8.844;2023-06-22T01:49:19;10.10;;;7.15;;
72569;SDS011;60594;50.204;8.844;2023-06-22T01:51:45;8.88;;;6.65;;
72569;SDS011;60594;50.204;8.844;2023-06-22T01:54:12;11.88;;;8.02;;
72569;SDS011;60594;50.204;8.844;2023-06-22T01:56:39;11.48;;;7.30;;
72569;SDS011;60594;50.204;8.844;2023-06-22T02:01:41;11.85;;;8.43;;
72569;SDS011;60594;50.204;8.844;2023-06-22T02:04:23;12.90;;;8.48;;
72569;SDS011;60594;50.204;8.844;2023-06-22T02:06:55;13.35;;;8.02;;
72569;SDS011;60594;50.204;8.844;2023-06-22T02:09:25;11.40;;;8.45;;
72569;SDS011;60594;50.204;8.844;2023-06-22T02:11:54;11.57;;;7.85;;
72569;SDS011;60594;50.204;8.844;2023-06-22T02:14:23;10.32;;;7.05;;
72569;SDS011;60594;50.204;8.844;2023-06-22T02:16:51;11.82;;;7.72;;
72569;SDS011;60594;50.204;8.844;2023-06-22T02:19:22;11.05;;;7.82;;
72569;SDS011;60594;50.204;8.844;2023-06-22T02:21:49;11.32;;;7.85;;
72569;SDS011;60594;50.204;8.844;2023-06-22T02:24:16;10.75;;;7.03;;
72569;SDS011;60594;50.204;8.844;2023-06-22T02:26:42;13.35;;;8.50;;
72569;SDS011;60594;50.204;8.844;2023-06-22T02:29:11;11.60;;;8.18;;
72569;SDS011;60594;50.204;8.844;2023-06-22T02:31:37;11.27;;;7.88;;
72569;SDS011;60594;50.204;8.844;2023-06-22T02:34:04;11.00;;;8.07;;
72569;SDS011;60594;50.204;8.844;2023-06-22T02:36:30;11.65;;;7.30;;
72569;SDS011;60594;50.204;8.844;2023-06-22T02:39:00;14.05;;;7.93;;
72569;SDS011;60594;50.204;8.844;2023-06-22T02:41:30;10.75;;;7.82;;
72569;SDS011;60594;50.204;8.844;2023-06-22T02:43:57;11.10;;;7.82;;
72569;SDS011;60594;50.204;8.844;2023-06-22T02:46:23;10.95;;;7.90;;
72569;SDS011;60594;50.204;8.844;2023-06-22T02:48:50;10.23;;;7.03;;
72569;SDS011;60594;50.204;8.844;2023-06-22T02:51:16;10.38;;;7.90;;
72569;SDS011;60594;50.204;8.844;2023-06-22T02:53:43;10.43;;;8.23;;
72569;SDS011;60594;50.204;8.844;2023-06-22T02:56:13;11.02;;;7.57;;
72569;SDS011;60594;50.204;8.844;2023-06-22T02:58:39;11.77;;;7.68;;
72569;SDS011;60594;50.204;8.844;2023-06-22T03:01:09;11.20;;;7.43;;
72569;SDS011;60594;50.204;8.844;2023-06-22T03:03:39;10.60;;;7.75;;
72569;SDS011;60594;50.204;8.844;2023-06-22T03:06:05;10.63;;;7.60;;
72569;SDS011;60594;50.204;8.844;2023-06-22T03:08:32;9.95;;;7.18;;
72569;SDS011;60594;50.204;8.844;2023-06-22T03:10:59;11.15;;;7.75;;
72569;SDS011;60594;50.204;8.844;2023-06-22T03:13:26;9.40;;;6.47;;
72569;SDS011;60594;50.204;8.844;2023-06-22T03:15:53;9.85;;;7.72;;
72569;SDS011;60594;50.204;8.844;2023-06-22T03:18:19;10.80;;;7.40;;
72569;SDS011;60594;50.204;8.844;2023-06-22T03:20:48;11.25;;;7.72;;
72569;SDS011;60594;50.204;8.844;2023-06-22T03:23:15;12.48;;;7.32;;
72569;SDS011;60594;50.204;8.844;2023-06-22T03:25:42;9.90;;;6.53;;
72569;SDS011;60594;50.204;8.844;2023-06-22T03:28:11;10.85;;;7.18;;
72569;SDS011;60594;50.204;8.844;2023-06-22T03:30:37;10.93;;;7.25;;
72569;SDS011;60594;50.204;8.844;2023-06-22T03:33:04;10.38;;;7.72;;
72569;SDS011;60594;50.204;8.844;2023-06-22T03:35:30;10.52;;;7.50;;
72569;SDS011;60594;50.204;8.844;2023-06-22T03:37:57;10.90;;;7.25;;
72569;SDS011;60594;50.204;8.844;2023-06-22T03:40:23;11.75;;;7.57;;
72569;SDS011;60594;50.204;8.844;2023-06-22T03:42:51;13.75;;;8.15;;
72569;SDS011;60594;50.204;8.844;2023-06-22T03:45:17;11.23;;;7.80;;
72569;SDS011;60594;50.204;8.844;2023-06-22T03:47:44;11.13;;;8.13;;
72569;SDS011;60594;50.204;8.844;2023-06-22T03:50:10;10.73;;;7.45;;
72569;SDS011;60594;50.204;8.844;2023-06-22T03:52:37;10.77;;;7.40;;
72569;SDS011;60594;50.204;8.844;2023-06-22T03:55:03;11.90;;;8.10;;
72569;SDS011;60594;50.204;8.844;2023-06-22T03:57:32;11.20;;;7.90;;
72569;SDS011;60594;50.204;8.844;2023-06-22T03:59:59;11.23;;;7.85;;
72569;SDS011;60594;50.204;8.844;2023-06-22T04:02:26;11.07;;;7.88;;
72569;SDS011;60594;50.204;8.844;2023-06-22T04:04:52;10.48;;;7.32;;
72569;SDS011;60594;50.204;8.844;2023-06-22T04:07:19;11.32;;;8.40;;
72569;SDS011;60594;50.204;8.844;2023-06-22T04:09:45;12.48;;;7.72;;
72569;SDS011;60594;50.204;8.844;2023-06-22T04:12:12;10.68;;;7.40;;
72569;SDS011;60594;50.204;8.844;2023-06-22T04:14:39;8.98;;;7.22;;
72569;SDS011;60594;50.204;8.844;2023-06-22T04:17:06;11.73;;;7.55;;
72569;SDS011;60594;50.204;8.844;2023-06-22T04:19:33;11.10;;;8.05;;
72569;SDS011;60594;50.204;8.844;2023-06-22T04:21:59;10.77;;;8.07;;
72569;SDS011;60594;50.204;8.844;2023-06-22T04:24:26;12.15;;;8.23;;
72569;SDS011;60594;50.204;8.844;2023-06-22T04:26:53;11.25;;;8.00;;
72569;SDS011;60594;50.204;8.844;2023-06-22T04:29:21;11.30;;;7.28;;
72569;SDS011;60594;50.204;8.844;2023-06-22T04:31:55;11.70;;;8.30;;
72569;SDS011;60594;50.204;8.844;2023-06-22T04:34:24;12.85;;;8.07;;
72569;SDS011;60594;50.204;8.844;2023-06-22T04:36:54;12.02;;;7.80;;
72569;SDS011;60594;50.204;8.844;2023-06-22T04:39:21;12.15;;;7.72;;
72569;SDS011;60594;50.204;8.844;2023-06-22T04:41:47;11.85;;;8.32;;
72569;SDS011;60594;50.204;8.844;2023-06-22T04:44:15;13.23;;;8.68;;
72569;SDS011;60594;50.204;8.844;2023-06-22T04:46:55;12.13;;;8.20;;
72569;SDS011;60594;50.204;8.844;2023-06-22T04:49:26;12.90;;;8.32;;
72569;SDS011;60594;50.204;8.844;2023-06-22T04:51:59;13.13;;;8.55;;
72569;SDS011;60594;50.204;8.844;2023-06-22T04:54:26;12.45;;;8.68;;
72569;SDS011;60594;50.204;8.844;2023-06-22T04:56:53;12.25;;;8.20;;
72569;SDS011;60594;50.204;8.844;2023-06-22T04:59:27;12.77;;;8.77;;
72569;SDS011;60594;50.204;8.844;2023-06-22T05:02:00;11.30;;;8.40;;
72569;SDS011;60594;50.204;8.844;2023-06-22T05:04:27;11.15;;;8.85;;
72569;SDS011;60594;50.204;8.844;2023-06-22T05:06:57;10.95;;;8.18;;
72569;SDS011;60594;50.204;8.844;2023-06-22T05:09:27;11.25;;;7.95;;
72569;SDS011;60594;50.204;8.844;2023-06-22T05:11:55;10.73;;;8.23;;
72569;SDS011;60594;50.204;8.844;2023-06-22T05:14:22;11.05;;;7.88;;
72569;SDS011;60594;50.204;8.844;2023-06-22T05:16:49;9.90;;;7.78;;
72569;SDS011;60594;50.204;8.844;2023-06-22T05:19:17;10.35;;;7.63;;
72569;SDS011;60594;50.204;8.844;2023-06-22T05:21:44;13.70;;;8.60;;
72569;SDS011;60594;50.204;8.844;2023-06-22T05:24:11;12.27;;;8.57;;
72569;SDS011;60594;50.204;8.844;2023-06-22T05:26:38;10.07;;;6.97;;
72569;SDS011;60594;50.204;8.844;2023-06-22T05:29:04;11.70;;;8.30;;
72569;SDS011;60594;50.204;8.844;2023-06-22T05:31:31;11.13;;;8.15;;
72569;SDS011;60594;50.204;8.844;2023-06-22T05:33:57;11.90;;;8.43;;
72569;SDS011;60594;50.204;8.844;2023-06-22T05:36:26;11.68;;;8.73;;
72569;SDS011;60594;50.204;8.844;2023-06-22T05:38:52;13.80;;;8.50;;
72569;SDS011;60594;50.204;8.844;2023-06-22T05:41:19;12.60;;;9.15;;
72569;SDS011;60594;50.204;8.844;2023-06-22T05:43:45;12.95;;;8.70;;
72569;SDS011;60594;50.204;8.844;2023-06-22T05:46:12;14.13;;;9.18;;
72569;SDS011;60594;50.204;8.844;2023-06-22T05:48:39;14.05;;;8.98;;
72569;SDS011;60594;50.204;8.844;2023-06-22T05:51:05;16.58;;;9.55;;
72569;SDS011;60594;50.204;8.844;2023-06-22T05:53:32;12.25;;;8.70;;
72569;SDS011;60594;50.204;8.844;2023-06-22T05:55:58;13.23;;;8.80;;
72569;SDS011;60594;50.204;8.844;2023-06-22T05:58:25;14.23;;;9.23;;
72569;SDS011;60594;50.204;8.844;2023-06-22T06:00:51;13.00;;;9.15;;
72569;SDS011;60594;50.204;8.844;2023-06-22T06:03:18;12.25;;;8.93;;
72569;SDS011;60594;50.204;8.844;2023-06-22T06:05:45;13.88;;;9.25;;
72569;SDS011;60594;50.204;8.844;2023-06-22T06:08:11;15.63;;;9.07;;
72569;SDS011;60594;50.204;8.844;2023-06-22T06:10:38;12.32;;;8.10;;
72569;SDS011;60594;50.204;8.844;2023-06-22T06:13:05;15.00;;;8.95;;
72569;SDS011;60594;50.204;8.844;2023-06-22T06:15:32;15.93;;;10.15;;
72569;SDS011;60594;50.204;8.844;2023-06-22T06:18:00;12.48;;;8.95;;
72569;SDS011;60594;50.204;8.844;2023-06-22T06:20:28;12.07;;;8.75;;
72569;SDS011;60594;50.204;8.844;2023-06-22T06:22:54;13.70;;;9.10;;
72569;SDS011;60594;50.204;8.844;2023-06-22T06:25:21;16.88;;;9.32;;
72569;SDS011;60594;50.204;8.844;2023-06-22T06:27:50;15.07;;;9.45;;
72569;SDS011;60594;50.204;8.844;2023-06-22T06:30:17;12.25;;;9.18;;
72569;SDS011;60594;50.204;8.844;2023-06-22T06:32:45;14.32;;;9.48;;
72569;SDS011;60594;50.204;8.844;2023-06-22T06:35:13;13.75;;;9.02;;
72569;SDS011;60594;50.204;8.844;2023-06-22T06:37:41;12.63;;;8.98;;
72569;SDS011;60594;50.204;8.844;2023-06-22T06:40:13;12.77;;;8.73;;
72569;SDS011;60594;50.204;8.844;2023-06-22T06:42:41;12.20;;;8.48;;
72569;SDS011;60594;50.204;8.844;2023-06-22T06:45:12;11.60;;;8.98;;
72569;SDS011;60594;50.204;8.844;2023-06-22T06:47:42;13.02;;;9.52;;
72569;SDS011;60594;50.204;8.844;2023-06-22T06:50:09;12.48;;;8.93;;
72569;SDS011;60594;50.204;8.844;2023-06-22T06:52:37;11.82;;;8.75;;
72569;SDS011;60594;50.204;8.844;2023-06-22T06:55:04;12.10;;;9.05;;
72569;SDS011;60594;50.204;8.844;2023-06-22T06:57:31;11.77;;;8.35;;
72569;SDS011;60594;50.204;8.844;2023-06-22T06:59:59;11.57;;;8.70;;
72569;SDS011;60594;50.204;8.844;2023-06-22T07:02:26;11.68;;;8.60;;
72569;SDS011;60594;50.204;8.844;2023-06-22T07:04:56;11.23;;;7.80;;
72569;SDS011;60594;50.204;8.844;2023-06-22T07:07:22;11.68;;;8.27;;
72569;SDS011;60594;50.204;8.844;2023-06-22T07:09:49;12.50;;;9.00;;
72569;SDS011;60594;50.204;8.844;2023-06-22T07:12:16;13.82;;;8.07;;
72569;SDS011;60594;50.204;8.844;2023-06-22T07:14:43;10.73;;;8.50;;
72569;SDS011;60594;50.204;8.844;2023-06-22T07:17:10;11.65;;;8.63;;
72569;SDS011;60594;50.204;8.844;2023-06-22T07:19:36;11.90;;;8.30;;
72569;SDS011;60594;50.204;8.844;2023-06-22T07:22:03;12.65;;;8.90;;
72569;SDS011;60594;50.204;8.844;2023-06-22T07:24:29;12.77;;;8.32;;
72569;SDS011;60594;50.204;8.844;2023-06-22T07:26:56;12.77;;;9.13;;
72569;SDS011;60594;50.204;8.844;2023-06-22T07:29:23;13.48;;;8.48;;
72569;SDS011;60594;50.204;8.844;2023-06-22T07:31:50;10.40;;;8.20;;
72569;SDS011;60594;50.204;8.844;2023-06-22T07:34:20;11.02;;;8.23;;
72569;SDS011;60594;50.204;8.844;2023-06-22T07:36:46;11.02;;;7.43;;
72569;SDS011;60594;50.204;8.844;2023-06-22T07:39:13;10.82;;;8.20;;
72569;SDS011;60594;50.204;8.844;2023-06-22T07:41:40;11.85;;;9.07;;
72569;SDS011;60594;50.204;8.844;2023-06-22T07:44:07;11.60;;;8.70;;
72569;SDS011;60594;50.204;8.844;2023-06-22T07:46:33;11.65;;;8.60;;
72569;SDS011;60594;50.204;8.844;2023-06-22T07:49:00;11.35;;;8.07;;
72569;SDS011;60594;50.204;8.844;2023-06-22T07:51:27;11.75;;;8.30;;
72569;SDS011;60594;50.204;8.844;2023-06-22T07:53:54;12.20;;;8.57;;
72569;SDS011;60594;50.204;8.844;2023-06-22T07:56:20;12.32;;;8.65;;
72569;SDS011;60594;50.204;8.844;2023-06-22T07:58:47;10.50;;;8.27;;
72569;SDS011;60594;50.204;8.844;2023-06-22T08:01:14;11.63;;;8.00;;
72569;SDS011;60594;50.204;8.844;2023-06-22T08:03:41;13.32;;;8.52;;
72569;SDS011;60594;50.204;8.844;2023-06-22T08:06:08;10.93;;;8.15;;
72569;SDS011;60594;50.204;8.844;2023-06-22T08:08:38;11.10;;;8.25;;
72569;SDS011;60594;50.204;8.844;2023-06-22T08:11:05;11.35;;;7.95;;
72569;SDS011;60594;50.204;8.844;2023-06-22T08:13:32;10.57;;;7.72;;
72569;SDS011;60594;50.204;8.844;2023-06-22T08:15:59;12.00;;;8.50;;
72569;SDS011;60594;50.204;8.844;2023-06-22T08:18:25;11.35;;;8.75;;
72569;SDS011;60594;50.204;8.844;2023-06-22T08:20:52;10.55;;;8.57;;
72569;SDS011;60594;50.204;8.844;2023-06-22T08:23:18;11.45;;;8.68;;
72569;SDS011;60594;50.204;8.844;2023-06-22T08:25:45;10.63;;;8.35;;
72569;SDS011;60594;50.204;8.844;2023-06-22T08:28:11;10.85;;;8.30;;
72569;SDS011;60594;50.204;8.844;2023-06-22T08:30:39;11.63;;;8.57;;
72569;SDS011;60594;50.204;8.844;2023-06-22T08:33:05;10.32;;;8.20;;
72569;SDS011;60594;50.204;8.844;2023-06-22T08:35:32;10.32;;;7.18;;
72569;SDS011;60594;50.204;8.844;2023-06-22T08:37:58;10.45;;;7.72;;
72569;SDS011;60594;50.204;8.844;2023-06-22T08:40:26;10.07;;;8.25;;
72569;SDS011;60594;50.204;8.844;2023-06-22T08:42:53;11.50;;;8.77;;
72569;SDS011;60594;50.204;8.844;2023-06-22T08:45:19;11.23;;;8.35;;
72569;SDS011;60594;50.204;8.844;2023-06-22T08:47:46;9.80;;;7.55;;
72569;SDS011;60594;50.204;8.844;2023-06-22T08:50:12;10.63;;;8.52;;
72569;SDS011;60594;50.204;8.844;2023-06-22T08:52:39;11.00;;;8.50;;
72569;SDS011;60594;50.204;8.844;2023-06-22T08:55:09;12.43;;;8.68;;
72569;SDS011;60594;50.204;8.844;2023-06-22T08:57:36;10.90;;;8.23;;
72569;SDS011;60594;50.204;8.844;2023-06-22T09:00:05;11.18;;;8.75;;
72569;SDS011;60594;50.204;8.844;2023-06-22T09:02:41;10.95;;;8.27;;
72569;SDS011;60594;50.204;8.844;2023-06-22T09:05:07;12.75;;;8.85;;
72569;SDS011;60594;50.204;8.844;2023-06-22T09:07:34;10.55;;;8.90;;
72569;SDS011;60594;50.204;8.844;2023-06-22T09:10:01;10.80;;;8.43;;
72569;SDS011;60594;50.204;8.844;2023-06-22T09:12:30;10.05;;;7.50;;
72569;SDS011;60594;50.204;8.844;2023-06-22T09:14:59;11.15;;;8.07;;
72569;SDS011;60594;50.204;8.844;2023-06-22T09:19:53;9.77;;;6.57;;
72569;SDS011;60594;50.204;8.844;2023-06-22T09:22:19;10.73;;;7.63;;
72569;SDS011;60594;50.204;8.844;2023-06-22T09:24:46;10.73;;;7.65;;
72569;SDS011;60594;50.204;8.844;2023-06-22T09:27:13;10.35;;;8.30;;
72569;SDS011;60594;50.204;8.844;2023-06-22T09:29:39;10.57;;;7.68;;
72569;SDS011;60594;50.204;8.844;2023-06-22T09:32:06;10.25;;;7.97;;
72569;SDS011;60594;50.204;8.844;2023-06-22T09:34:33;10.35;;;7.57;;
72569;SDS011;60594;50.204;8.844;2023-06-22T09:37:00;10.82;;;7.55;;
72569;SDS011;60594;50.204;8.844;2023-06-22T09:39:29;8.90;;;7.43;;
72569;SDS011;60594;50.204;8.844;2023-06-22T09:41:57;9.32;;;7.75;;
72569;SDS011;60594;50.204;8.844;2023-06-22T09:44:25;9.93;;;7.88;;
72569;SDS011;60594;50.204;8.844;2023-06-22T09:46:52;10.38;;;6.82;;
72569;SDS011;60594;50.204;8.844;2023-06-22T09:49:19;9.32;;;7.43;;
72569;SDS011;60594;50.204;8.844;2023-06-22T09:51:45;10.20;;;7.82;;
72569;SDS011;60594;50.204;8.844;2023-06-22T09:54:12;9.90;;;7.35;;
72569;SDS011;60594;50.204;8.844;2023-06-22T09:56:38;10.60;;;7.88;;
72569;SDS011;60594;50.204;8.844;2023-06-22T09:59:04;9.93;;;7.93;;
72569;SDS011;60594;50.204;8.844;2023-06-22T10:01:31;9.82;;;7.82;;
72569;SDS011;60594;50.204;8.844;2023-06-22T10:03:58;9.68;;;7.65;;
72569;SDS011;60594;50.204;8.844;2023-06-22T10:06:24;9.85;;;7.10;;
72569;SDS011;60594;50.204;8.844;2023-06-22T10:08:54;9.80;;;6.90;;
72569;SDS011;60594;50.204;8.844;2023-06-22T10:11:20;9.10;;;6.30;;
72569;SDS011;60594;50.204;8.844;2023-06-22T10:13:49;7.35;;;5.95;;
72569;SDS011;60594;50.204;8.844;2023-06-22T10:16:15;7.18;;;5.63;;
72569;SDS011;60594;50.204;8.844;2023-06-22T10:18:42;7.63;;;5.75;;
72569;SDS011;60594;50.204;8.844;2023-06-22T10:21:08;9.38;;;5.63;;
72569;SDS011;60594;50.204;8.844;2023-06-22T10:23:35;7.57;;;5.28;;
72569;SDS011;60594;50.204;8.844;2023-06-22T10:26:05;7.55;;;5.70;;
72569;SDS011;60594;50.204;8.844;2023-06-22T10:28:31;8.30;;;6.15;;
72569;SDS011;60594;50.204;8.844;2023-06-22T10:30:58;6.35;;;5.38;;
72569;SDS011;60594;50.204;8.844;2023-06-22T10:33:25;7.15;;;5.95;;
72569;SDS011;60594;50.204;8.844;2023-06-22T10:35:51;8.20;;;6.13;;
72569;SDS011;60594;50.204;8.844;2023-06-22T10:38:18;7.75;;;5.93;;
72569;SDS011;60594;50.204;8.844;2023-06-22T10:40:44;9.57;;;6.88;;
72569;SDS011;60594;50.204;8.844;2023-06-22T10:43:11;8.38;;;6.57;;
72569;SDS011;60594;50.204;8.844;2023-06-22T10:45:38;8.05;;;6.60;;
72569;SDS011;60594;50.204;8.844;2023-06-22T10:48:04;7.85;;;6.20;;
72569;SDS011;60594;50.204;8.844;2023-06-22T10:50:31;7.97;;;6.30;;
72569;SDS011;60594;50.204;8.844;2023-06-22T10:52:57;10.55;;;6.25;;
72569;SDS011;60594;50.204;8.844;2023-06-22T10:55:24;8.70;;;6.18;;
72569;SDS011;60594;50.204;8.844;2023-06-22T10:57:50;8.88;;;6.18;;
72569;SDS011;60594;50.204;8.844;2023-06-22T11:00:18;7.70;;;5.55;;
72569;SDS011;60594;50.204;8.844;2023-06-22T11:02:45;8.50;;;6.20;;
72569;SDS011;60594;50.204;8.844;2023-06-22T11:05:11;7.78;;;5.85;;
72569;SDS011;60594;50.204;8.844;2023-06-22T11:07:41;8.05;;;6.10;;
72569;SDS011;60594;50.204;8.844;2023-06-22T11:10:09;8.35;;;6.35;;
72569;SDS011;60594;50.204;8.844;2023-06-22T11:12:36;8.25;;;6.65;;
72569;SDS011;60594;50.204;8.844;2023-06-22T11:15:04;8.35;;;6.60;;
72569;SDS011;60594;50.204;8.844;2023-06-22T11:17:31;7.78;;;6.30;;
72569;SDS011;60594;50.204;8.844;2023-06-22T11:19:57;8.43;;;6.60;;
72569;SDS011;60594;50.204;8.844;2023-06-22T11:22:26;9.32;;;6.43;;
72569;SDS011;60594;50.204;8.844;2023-06-22T11:24:53;8.93;;;6.70;;
72569;SDS011;60594;50.204;8.844;2023-06-22T11:27:19;8.90;;;6.32;;
72569;SDS011;60594;50.204;8.844;2023-06-22T11:29:46;8.90;;;6.50;;
72569;SDS011;60594;50.204;8.844;2023-06-22T11:32:12;10.60;;;7.00;;
72569;SDS011;60594;50.204;8.844;2023-06-22T11:34:38;7.85;;;6.07;;
72569;SDS011;60594;50.204;8.844;2023-06-22T11:37:06;9.40;;;6.85;;
72569;SDS011;60594;50.204;8.844;2023-06-22T11:39:32;10.15;;;6.43;;
72569;SDS011;60594;50.204;8.844;2023-06-22T11:41:59;10.68;;;6.68;;
72569;SDS011;60594;50.204;8.844;2023-06-22T11:44:25;10.73;;;6.18;;
72569;SDS011;60594;50.204;8.844;2023-06-22T11:46:52;9.73;;;6.40;;
72569;SDS011;60594;50.204;8.844;2023-06-22T11:49:18;10.85;;;5.88;;
72569;SDS011;60594;50.204;8.844;2023-06-22T11:51:45;8.77;;;6.05;;
72569;SDS011;60594;50.204;8.844;2023-06-22T11:54:11;7.75;;;5.95;;
72569;SDS011;60594;50.204;8.844;2023-06-22T11:56:38;8.07;;;6.32;;
72569;SDS011;60594;50.204;8.844;2023-06-22T11:59:04;8.57;;;6.88;;
72569;SDS011;60594;50.204;8.844;2023-06-22T12:01:31;10.63;;;6.22;;
72569;SDS011;60594;50.204;8.844;2023-06-22T12:03:59;8.90;;;6.70;;
72569;SDS011;60594;50.204;8.844;2023-06-22T12:06:25;10.75;;;7.25;;
72569;SDS011;60594;50.204;8.844;2023-06-22T12:08:52;9.55;;;6.65;;
72569;SDS011;60594;50.204;8.844;2023-06-22T12:11:18;9.73;;;6.60;;
72569;SDS011;60594;50.204;8.844;2023-06-22T12:13:45;9.95;;;6.28;;
72569;SDS011;60594;50.204;8.844;2023-06-22T12:16:11;8.43;;;6.60;;
72569;SDS011;60594;50.204;8.844;2023-06-22T12:18:38;8.35;;;6.50;;
72569;SDS011;60594;50.204;8.844;2023-06-22T12:21:04;12.13;;;7.15;;
72569;SDS011;60594;50.204;8.844;2023-06-22T12:23:31;9.30;;;6.85;;
72569;SDS011;60594;50.204;8.844;2023-06-22T12:25:57;9.93;;;7.18;;
72569;SDS011;60594;50.204;8.844;2023-06-22T12:28:25;8.38;;;6.78;;
72569;SDS011;60594;50.204;8.844;2023-06-22T12:30:52;10.13;;;6.43;;
72569;SDS011;60594;50.204;8.844;2023-06-22T12:33:18;8.07;;;6.55;;
72569;SDS011;60594;50.204;8.844;2023-06-22T12:35:45;10.60;;;6.72;;
72569;SDS011;60594;50.204;8.844;2023-06-22T12:38:12;9.27;;;6.93;;
72569;SDS011;60594;50.204;8.844;2023-06-22T12:40:39;11.35;;;7.07;;
72569;SDS011;60594;50.204;8.844;2023-06-22T12:43:05;10.30;;;7.07;;
72569;SDS011;60594;50.204;8.844;2023-06-22T12:45:34;9.13;;;6.97;;
72569;SDS011;60594;50.204;8.844;2023-06-22T12:48:00;10.13;;;7.57;;
72569;SDS011;60594;50.204;8.844;2023-06-22T12:50:27;9.77;;;7.07;;
72569;SDS011;60594;50.204;8.844;2023-06-22T12:52:53;9.32;;;7.00;;
72569;SDS011;60594;50.204;8.844;2023-06-22T12:55:20;12.30;;;7.50;;
72569;SDS011;60594;50.204;8.844;2023-06-22T12:57:46;10.27;;;7.25;;
72569;SDS011;60594;50.204;8.844;2023-06-22T13:00:13;12.50;;;6.97;;
72569;SDS011;60594;50.204;8.844;2023-06-22T13:02:40;9.82;;;6.63;;
72569;SDS011;60594;50.204;8.844;2023-06-22T13:07:34;9.88;;;7.22;;
72569;SDS011;60594;50.204;8.844;2023-06-22T13:10:01;10.10;;;7.00;;
72569;SDS011;60594;50.204;8.844;2023-06-22T13:12:28;9.60;;;6.65;;
72569;SDS011;60594;50.204;8.844;2023-06-22T13:14:55;12.43;;;7.28;;
72569;SDS011;60594;50.204;8.844;2023-06-22T13:17:21;12.20;;;8.00;;
72569;SDS011;60594;50.204;8.844;2023-06-22T13:19:48;11.43;;;6.93;;
72569;SDS011;60594;50.204;8.844;2023-06-22T13:22:28;10.75;;;7.65;;
72569;SDS011;60594;50.204;8.844;2023-06-22T13:24:56;8.88;;;6.53;;
72569;SDS011;60594;50.204;8.844;2023-06-22T13:27:23;11.52;;;6.72;;
72569;SDS011;60594;50.204;8.844;2023-06-22T13:29:50;10.35;;;6.93;;
72569;SDS011;60594;50.204;8.844;2023-06-22T13:32:18;12.65;;;7.25;;
72569;SDS011;60594;50.204;8.844;2023-06-22T13:34:45;10.98;;;6.57;;
72569;SDS011;60594;50.204;8.844;2023-06-22T13:37:11;12.43;;;6.95;;
72569;SDS011;60594;50.204;8.844;2023-06-22T13:39:38;10.57;;;6.93;;
72569;SDS011;60594;50.204;8.844;2023-06-22T13:42:06;10.07;;;6.97;;
72569;SDS011;60594;50.204;8.844;2023-06-22T13:44:33;9.77;;;7.00;;
72569;SDS011;60594;50.204;8.844;2023-06-22T13:46:59;11.77;;;6.47;;
72569;SDS011;60594;50.204;8.844;2023-06-22T13:49:26;9.32;;;7.03;;
72569;SDS011;60594;50.204;8.844;2023-06-22T13:51:52;9.70;;;5.82;;
72569;SDS011;60594;50.204;8.844;2023-06-22T13:54:19;9.50;;;6.80;;
72569;SDS011;60594;50.204;8.844;2023-06-22T13:56:45;9.55;;;6.93;;
72569;SDS011;60594;50.204;8.844;2023-06-22T13:59:12;10.25;;;7.00;;
72569;SDS011;60594;50.204;8.844;2023-06-22T14:01:38;9.57;;;6.63;;
72569;SDS011;60594;50.204;8.844;2023-06-22T14:04:06;10.65;;;6.93;;
72569;SDS011;60594;50.204;8.844;2023-06-22T14:06:32;9.60;;;6.85;;
72569;SDS011;60594;50.204;8.844;2023-06-22T14:08:59;9.85;;;6.38;;
72569;SDS011;60594;50.204;8.844;2023-06-22T14:11:25;16.48;;;6.80;;
72569;SDS011;60594;50.204;8.844;2023-06-22T14:13:52;10.93;;;7.03;;
72569;SDS011;60594;50.204;8.844;2023-06-22T14:16:18;10.88;;;6.70;;
72569;SDS011;60594;50.204;8.844;2023-06-22T14:18:45;7.95;;;5.60;;
72569;SDS011;60594;50.204;8.844;2023-06-22T14:21:11;9.25;;;6.25;;
72569;SDS011;60594;50.204;8.844;2023-06-22T14:23:38;10.57;;;6.35;;
72569;SDS011;60594;50.204;8.844;2023-06-22T14:26:04;11.18;;;5.80;;
72569;SDS011;60594;50.204;8.844;2023-06-22T14:28:31;9.38;;;6.15;;
72569;SDS011;60594;50.204;8.844;2023-06-22T14:30:57;10.82;;;6.22;;
72569;SDS011;60594;50.204;8.844;2023-06-22T14:33:24;10.43;;;6.60;;
72569;SDS011;60594;50.204;8.844;2023-06-22T14:35:50;9.63;;;6.45;;
72569;SDS011;60594;50.204;8.844;2023-06-22T14:38:17;12.90;;;6.35;;
72569;SDS011;60594;50.204;8.844;2023-06-22T14:40:44;9.60;;;6.00;;
72569;SDS011;60594;50.204;8.844;2023-06-22T14:43:10;9.52;;;5.75;;
72569;SDS011;60594;50.204;8.844;2023-06-22T14:45:37;11.07;;;5.82;;
72569;SDS011;60594;50.204;8.844;2023-06-22T14:48:03;12.18;;;6.82;;
72569;SDS011;60594;50.204;8.844;2023-06-22T14:50:30;11.38;;;5.43;;
72569;SDS011;60594;50.204;8.844;2023-06-22T14:52:56;10.20;;;6.75;;
72569;SDS011;60594;50.204;8.844;2023-06-22T14:55:23;9.88;;;6.10;;
72569;SDS011;60594;50.204;8.844;2023-06-22T14:57:49;9.25;;;5.82;;
72569;SDS011;60594;50.204;8.844;2023-06-22T15:00:16;10.65;;;5.60;;